Tilos, Greece
Current Conditions -  °F | °C
As of 6:20 PM on Thursday 27 Nov 2014 (Local Time) from LGKO Reporting Station
Clear Clear  
Wind Chill: 54°   Ceiling: Unl
Heat Index: 54°   Visibility: 6mi
Dew Point: 41°   Wind: 7mph
Humidity: 62%   Direction: 340°NNW
Pressure: 30.09"   Gusts: NA
Location:  36.42°N, 27.37°E
Report Text: LGKO 271620Z 34006KT CAVOK 12/05 Q1019
Loading
Personal Weather Stations






























Interactive Weather Map New forecast layout! Learn more

10-Day Weather Forecast

Advertisements
Track Severe Weather on mobile